METAR Reports

 

KMRH - Beaufort, North Carolina, USA
Distance from station: E 8mi, 12km
Updated: Sat, 16-Dec-2017 4:58am EST
Clear
Clear
 Wind from NNW
Wind: NNW 9 mph , 15 km/h
Temperature: 36°F , 2°C
Wind Chill: 29°F , -2°C
Dew Point: 27°F , -3°C
Humidity: 70%
Barometer: 30.19 inHg , 1022.4 hPa
Clouds: Clear
Visibility: 10 miles , 16 km
2017/12/16 09:58 KMRH 160958Z AUTO 34008KT 10SM CLR 02/M03 A3019 RMK AO2 SLP222 T00171028 TSNO
KEWN - New Bern, North Carolina, USA
Distance from station: NW 33mi, 40km
Updated: Sat, 16-Dec-2017 4:54am EST
Clear
Clear
 Wind from NW
Wind: NW 3 mph , 6 km/h
Temperature: 30°F , -1°C
Dew Point: 25°F , -4°C
Humidity: 80%
Barometer: 30.20 inHg , 1022.7 hPa
Clouds: Clear
Visibility: 10 miles , 16 km
2017/12/16 09:54 KEWN 160954Z AUTO 31003KT 10SM CLR M01/M04 A3020 RMK AO2 SLP226 T10061044
 
KPGV - Greenville, North Carolina, USA
Updated: Sat, 16-Dec-2017 5:25am EST
Clear
Clear
 Wind from calm
Wind: Calm
Temperature: 30°F , -1°C
Dew Point: 23°F , -5°C
Humidity: 75%
Barometer: 30.21 inHg , 1023 hPa
Clouds: Clear
Visibility: 10 miles , 16 km
2017/12/16 10:25 KPGV 161025Z AUTO 00000KT 10SM CLR M01/M05 A3021 RMK AO2
KOAJ - Richlands, North Carolina, USA
Updated: Sat, 16-Dec-2017 4:56am EST
Clear
Clear
 Wind from calm
Wind: Calm
Temperature: 27°F , -3°C
Dew Point: 23°F , -5°C
Humidity: 86%
Barometer: 30.20 inHg , 1022.7 hPa
Clouds: Clear
Visibility: 9 miles , 14 km
2017/12/16 09:56 KOAJ 160956Z AUTO 00000KT 9SM CLR M03/M05 A3020 RMK AO2 SLP233 T10331050 FZRANO
 
KISO - Kinston, North Carolina, USA
Distance from station: NW 73mi, 87km
Updated: Fri, 15-Dec-2017 8:56pm EST
NOT Current
Clear
Clear
 Wind from NNW
Wind: NNW 5 mph , 7 km/h
Temperature: 39°F , 4°C
Wind Chill: 35°F , 2°C
Dew Point: 30°F , -1°C
Humidity: 70%
Barometer: 30.07 inHg , 1018.3 hPa
Clouds: Clear
Visibility: 10 miles , 16 km
2017/12/16 01:56 KISO 160156Z 33004KT 10SM CLR 04/M01 A3007 RMK AO2
KHSE - Buxton, North Carolina, USA
Distance from station: NE 89mi, 102km
Updated: Sat, 16-Dec-2017 4:51am EST
Clear
Clear
 Wind from NNW
Wind: NNW 7 mph , 11 km/h
Temperature: 39°F , 4°C
Wind Chill: 34°F , 1°C
Dew Point: 28°F , -2°C
Humidity: 65%
Barometer: 30.15 inHg , 1021 hPa
Clouds: Clear
Visibility: 10 miles , 16 km
2017/12/16 09:51 KHSE 160951Z AUTO 33006KT 10SM CLR 04/M02 A3015 RMK AO2 SLP209 T00391017 TSNO
 
KNCA - Jacksonville, North Carolina, USA
Distance from station: SW 48mi, 60km
Updated: Sat, 16-Dec-2017 4:56am EST
Clear
Clear
 Wind from WNW
Wind: WNW 5 mph , 7 km/h
Temperature: 30°F , -1°C
Wind Chill: 25°F , -4°C
Dew Point: 27°F , -3°C
Humidity: 86%
Barometer: 30.20 inHg , 1022.7 hPa
Clouds: Clear
Visibility: 10 miles , 16 km
2017/12/16 09:56 KNCA 160956Z AUTO 29004KT 10SM CLR M01/M03 A3020 RMK AO2 SLP228 T10061033
KNKT - Cherry Point, North Carolina, USA
Distance from station: NW 9mi, 12km
Updated: Sat, 16-Dec-2017 4:54am EST
Clear
Clear
 Wind from NNW
Wind: NNW 12 mph , 19 km/h
Temperature: 36°F , 2°C
Wind Chill: 28°F , -2°C
Dew Point: 25°F , -4°C
Humidity: 65%
Barometer: 30.19 inHg , 1022.4 hPa
Clouds: Clear
Visibility: 10 miles , 16 km
2017/12/16 09:54 KNKT 160954Z 33010KT 10SM CLR 02/M04 A3019 RMK AO2 SLP221 T00221039
 
KOCW - Washington, North Carolina, USA
Distance from station: N 73mi, 87km
Updated: Sat, 16-Dec-2017 5:25am EST
Clear
Clear
 Wind from calm
Wind: Calm
Temperature: 30°F , -1°C
Dew Point: 23°F , -5°C
Humidity: 75%
Barometer: 30.20 inHg , 1022.7 hPa
Clouds: Clear
Visibility: 10 miles , 16 km
2017/12/16 10:25 KOCW 161025Z AUTO 00000KT 10SM CLR M01/M05 A3020 RMK AO2 T10071053
KDPL - Kenansville, North Carolina, USA
Distance from station: W 86mi, 98km
Updated: Sat, 16-Dec-2017 5:25am EST
Clear
Clear
 Wind from calm
Wind: Calm
Temperature: 28°F , -2°C
Dew Point: 23°F , -5°C
Humidity: 80%
Barometer: 30.21 inHg , 1023 hPa
Clouds: Clear
Visibility: 7 miles , 11 km
2017/12/16 10:25 KDPL 161025Z AUTO 00000KT 7SM CLR M02/M05 A3021 RMK AO2
 
KMQI - Manteo, North Carolina, USA
Updated: Sat, 16-Dec-2017 5:25am EST
Clear
Clear
 Wind from NNW
Wind: NNW 7 mph , 11 km/h
Temperature: 36°F , 2°C
Wind Chill: 30°F , -1°C
Dew Point: 27°F , -3°C
Humidity: 70%
Barometer: 30.18 inHg , 1022 hPa
Clouds: Clear
Visibility: 10 miles , 16 km
2017/12/16 10:25 KMQI 161025Z AUTO 34006KT 10SM CLR 02/M03 A3018 RMK AO2 T00161035
KFFA - Kill Devil Hills, North Carolina, USA
Updated: Sat, 16-Dec-2017 5:20am EST
Clear
Clear
 Wind from calm
Wind: Calm
Temperature: 34°F , 1°C
Dew Point: 27°F , -3°C
Humidity: 75%
Barometer: 30.16 inHg , 1021.3 hPa
Clouds: Clear
Visibility: 10 miles , 16 km
2017/12/16 10:20 KFFA 161020Z AUTO 00000KT 10SM CLR 01/M03 A3016 RMK AO2 T00061035
 
KILM - Wilmington, North Carolina, USA
Updated: Sat, 16-Dec-2017 4:53am EST
Clear
Clear
 Wind from WNW
Wind: WNW 3 mph , 6 km/h
Temperature: 34°F , 1°C
Dew Point: 27°F , -3°C
Humidity: 75%
Barometer: 30.21 inHg , 1023 hPa
Clouds: Clear
Visibility: 10 miles , 16 km
2017/12/16 09:53 KILM 160953Z 30003KT 10SM CLR 01/M03 A3021 RMK AO2 SLP229 T00111028
KRDU - Raleigh, North Carolina, USA
Updated: Sat, 16-Dec-2017 4:51am EST
Few Clouds
Few Clouds
 Wind from calm
Wind: Calm
Temperature: 27°F , -3°C
Dew Point: 21°F , -6°C
Humidity: 80%
Barometer: 30.19 inHg , 1022.4 hPa
Clouds: Few Clouds
Visibility: 10 miles , 16 km
Cloud details: Few Clouds 25000 ft
2017/12/16 09:51 KRDU 160951Z 00000KT 10SM FEW250 M03/M06 A3019 RMK AO2 SLP225 T10281061